This is the latest recevied weather packets stored in our database for station/object KC8JWT. If no packets are shown the sender has not sent any weather packets the latest 1 day(s).
| Time | Temp. | Humidity | Pressure | Rain* | Wind** | Luminosity | Snow |
|---|---|---|---|---|---|---|---|
| 1778010683 | 24.44° C | 53% | 1009.3 hPa | 0 mm | 2.24 m/s, 164° | 354 W/m² | - |
| 1778010380 | 24.44° C | 53% | 1009.3 hPa | 0 mm | 2.24 m/s, 164° | 400 W/m² | - |
| 1778010076 | 24.44° C | 54% | 1009.3 hPa | 0 mm | 3.13 m/s, 166° | 389 W/m² | - |
| 1778009773 | 24.44° C | 54% | 1009.5 hPa | 0 mm | 4.02 m/s, 224° | 426 W/m² | - |
| 1778009470 | 24.44° C | 54% | 1009.5 hPa | 0 mm | 3.58 m/s, 208° | 406 W/m² | - |
| 1778009169 | 24.44° C | 52% | 1009.6 hPa | 0 mm | 3.58 m/s, 201° | 398 W/m² | - |
| 1778008866 | 24.44° C | 54% | 1009.8 hPa | 0 mm | 1.34 m/s, 275° | 392 W/m² | - |
| 1778008564 | 25° C | 53% | 1009.9 hPa | 0 mm | 2.24 m/s, 185° | 391 W/m² | - |
| 1778008262 | 24.44° C | 54% | 1009.9 hPa | 0 mm | 1.79 m/s, 230° | 390 W/m² | - |
| 1778007962 | 25° C | 53% | 1009.8 hPa | 0 mm | 6.26 m/s, 227° | 402 W/m² | - |
| 1778007657 | 25° C | 53% | 1009.7 hPa | 0 mm | 6.26 m/s, 227° | 402 W/m² | - |
| 1778007354 | 25° C | 54% | 1009.9 hPa | 0 mm | 3.13 m/s, 211° | 603 W/m² | - |
| 1778007051 | 25° C | 55% | 1009.6 hPa | 0 mm | 4.02 m/s, 248° | 654 W/m² | - |
| 1778006748 | 24.44° C | 55% | 1009.8 hPa | 0 mm | 4.02 m/s, 218° | 542 W/m² | - |
| 1778006444 | 23.89° C | 56% | 1010.1 hPa | 0 mm | 1.79 m/s, 212° | 304 W/m² | - |
| 1778006141 | 23.89° C | 57% | 1009.8 hPa | 0 mm | 4.02 m/s, 194° | 341 W/m² | - |
| 1778005839 | 23.89° C | 57% | 1010 hPa | 0 mm | 2.24 m/s, 119° | 204 W/m² | - |
| 1778005535 | 24.44° C | 55% | 1009.7 hPa | 0 mm | 4.47 m/s, 242° | 247 W/m² | - |
| 1778005232 | 24.44° C | 57% | 1010 hPa | 0 mm | 1.79 m/s, 184° | 337 W/m² | - |
| 1778004929 | 24.44° C | 56% | 1010 hPa | 0 mm | 2.24 m/s, 249° | 281 W/m² | - |
| 1778004627 | 25° C | 55% | 1009.9 hPa | 0 mm | 4.02 m/s, 192° | 275 W/m² | - |
| 1778004322 | 25° C | 55% | 1010.1 hPa | 0 mm | 2.68 m/s, 207° | 488 W/m² | - |
| 1778004021 | 25° C | 54% | 1010 hPa | 0 mm | 2.68 m/s, 222° | 473 W/m² | - |
| 1778003720 | 25° C | 55% | 1010 hPa | 0 mm | 2.24 m/s, 215° | 481 W/m² | - |
| 1778003418 | 25° C | 54% | 1009.9 hPa | 0 mm | 5.81 m/s, 245° | 557 W/m² | - |
* Rain latest hour (hover to see other rain measurements)
** Current wind speed in m/s (hover to see current wind gust speed)